sensor_id;sensor_type;location;lat;lon;timestamp;P1;durP1;ratioP1;P2;durP2;ratioP2
61938;SDS011;47897;50.322;18.892;2022-08-18T00:00:34;103.10;;;53.70;;
61938;SDS011;47897;50.322;18.892;2022-08-18T00:03:19;93.50;;;52.70;;
61938;SDS011;47897;50.322;18.892;2022-08-18T00:06:03;94.40;;;50.30;;
61938;SDS011;47897;50.322;18.892;2022-08-18T00:08:48;93.80;;;52.00;;
61938;SDS011;47897;50.322;18.892;2022-08-18T00:11:33;87.30;;;50.70;;
61938;SDS011;47897;50.322;18.892;2022-08-18T00:14:20;99.10;;;52.90;;
61938;SDS011;47897;50.322;18.892;2022-08-18T00:17:04;89.50;;;50.90;;
61938;SDS011;47897;50.322;18.892;2022-08-18T00:19:49;96.00;;;51.30;;
61938;SDS011;47897;50.322;18.892;2022-08-18T00:22:33;88.00;;;50.60;;
61938;SDS011;47897;50.322;18.892;2022-08-18T00:25:18;94.20;;;51.00;;
61938;SDS011;47897;50.322;18.892;2022-08-18T00:28:03;93.40;;;53.50;;
61938;SDS011;47897;50.322;18.892;2022-08-18T00:30:48;94.90;;;53.10;;
61938;SDS011;47897;50.322;18.892;2022-08-18T00:33:32;88.70;;;51.70;;
61938;SDS011;47897;50.322;18.892;2022-08-18T00:36:16;89.00;;;53.10;;
61938;SDS011;47897;50.322;18.892;2022-08-18T00:39:00;88.70;;;51.00;;
61938;SDS011;47897;50.322;18.892;2022-08-18T00:41:45;98.50;;;52.30;;
61938;SDS011;47897;50.322;18.892;2022-08-18T00:44:29;97.00;;;54.10;;
61938;SDS011;47897;50.322;18.892;2022-08-18T00:47:14;94.60;;;52.90;;
61938;SDS011;47897;50.322;18.892;2022-08-18T00:49:59;92.20;;;53.10;;
61938;SDS011;47897;50.322;18.892;2022-08-18T00:52:44;96.90;;;54.40;;
61938;SDS011;47897;50.322;18.892;2022-08-18T00:55:34;99.10;;;54.60;;
61938;SDS011;47897;50.322;18.892;2022-08-18T00:58:22;100.00;;;53.00;;
61938;SDS011;47897;50.322;18.892;2022-08-18T01:01:12;95.20;;;51.30;;
61938;SDS011;47897;50.322;18.892;2022-08-18T01:04:08;90.20;;;51.90;;
61938;SDS011;47897;50.322;18.892;2022-08-18T01:07:04;93.60;;;52.20;;
61938;SDS011;47897;50.322;18.892;2022-08-18T01:09:54;97.60;;;51.90;;
61938;SDS011;47897;50.322;18.892;2022-08-18T01:12:46;93.60;;;52.40;;
61938;SDS011;47897;50.322;18.892;2022-08-18T01:18:17;89.90;;;50.90;;
61938;SDS011;47897;50.322;18.892;2022-08-18T01:21:21;96.30;;;53.50;;
61938;SDS011;47897;50.322;18.892;2022-08-18T01:24:30;92.70;;;51.30;;
61938;SDS011;47897;50.322;18.892;2022-08-18T01:27:37;94.20;;;52.00;;
61938;SDS011;47897;50.322;18.892;2022-08-18T01:30:24;85.20;;;50.80;;
61938;SDS011;47897;50.322;18.892;2022-08-18T01:33:09;88.40;;;50.50;;
61938;SDS011;47897;50.322;18.892;2022-08-18T01:35:55;91.00;;;50.30;;
61938;SDS011;47897;50.322;18.892;2022-08-18T01:38:40;90.20;;;51.20;;
61938;SDS011;47897;50.322;18.892;2022-08-18T01:41:24;86.80;;;50.10;;
61938;SDS011;47897;50.322;18.892;2022-08-18T01:44:09;85.70;;;49.80;;
61938;SDS011;47897;50.322;18.892;2022-08-18T01:46:53;91.90;;;50.70;;
61938;SDS011;47897;50.322;18.892;2022-08-18T01:49:39;96.90;;;51.30;;
61938;SDS011;47897;50.322;18.892;2022-08-18T01:52:26;88.70;;;49.90;;
61938;SDS011;47897;50.322;18.892;2022-08-18T01:55:12;85.30;;;48.70;;
61938;SDS011;47897;50.322;18.892;2022-08-18T01:57:56;92.00;;;51.00;;
61938;SDS011;47897;50.322;18.892;2022-08-18T02:00:41;89.10;;;49.50;;
61938;SDS011;47897;50.322;18.892;2022-08-18T02:03:27;94.20;;;50.10;;
61938;SDS011;47897;50.322;18.892;2022-08-18T02:06:17;89.50;;;51.50;;
61938;SDS011;47897;50.322;18.892;2022-08-18T02:09:03;89.40;;;50.90;;
61938;SDS011;47897;50.322;18.892;2022-08-18T02:11:47;94.40;;;51.00;;
61938;SDS011;47897;50.322;18.892;2022-08-18T02:14:33;90.40;;;52.60;;
61938;SDS011;47897;50.322;18.892;2022-08-18T02:17:18;91.20;;;52.70;;
61938;SDS011;47897;50.322;18.892;2022-08-18T02:20:03;89.50;;;51.30;;
61938;SDS011;47897;50.322;18.892;2022-08-18T02:22:49;92.40;;;52.20;;
61938;SDS011;47897;50.322;18.892;2022-08-18T02:25:33;92.60;;;50.80;;
61938;SDS011;47897;50.322;18.892;2022-08-18T02:28:18;87.80;;;52.20;;
61938;SDS011;47897;50.322;18.892;2022-08-18T02:31:04;99.70;;;55.90;;
61938;SDS011;47897;50.322;18.892;2022-08-18T02:33:50;88.30;;;53.70;;
61938;SDS011;47897;50.322;18.892;2022-08-18T02:36:35;93.90;;;52.10;;
61938;SDS011;47897;50.322;18.892;2022-08-18T02:39:19;94.60;;;53.30;;
61938;SDS011;47897;50.322;18.892;2022-08-18T02:42:04;99.00;;;52.60;;
61938;SDS011;47897;50.322;18.892;2022-08-18T02:44:50;96.00;;;52.60;;
61938;SDS011;47897;50.322;18.892;2022-08-18T02:47:34;98.80;;;52.50;;
61938;SDS011;47897;50.322;18.892;2022-08-18T02:50:19;106.20;;;54.70;;
61938;SDS011;47897;50.322;18.892;2022-08-18T02:53:04;98.80;;;51.90;;
61938;SDS011;47897;50.322;18.892;2022-08-18T02:55:48;96.70;;;53.50;;
61938;SDS011;47897;50.322;18.892;2022-08-18T02:58:32;99.50;;;52.00;;
61938;SDS011;47897;50.322;18.892;2022-08-18T03:01:16;96.50;;;54.70;;
61938;SDS011;47897;50.322;18.892;2022-08-18T03:04:01;104.80;;;53.00;;
61938;SDS011;47897;50.322;18.892;2022-08-18T03:06:46;96.10;;;52.80;;
61938;SDS011;47897;50.322;18.892;2022-08-18T03:09:31;98.60;;;52.80;;
61938;SDS011;47897;50.322;18.892;2022-08-18T03:12:16;96.40;;;52.70;;
61938;SDS011;47897;50.322;18.892;2022-08-18T03:15:00;103.70;;;53.80;;
61938;SDS011;47897;50.322;18.892;2022-08-18T03:17:46;99.00;;;52.60;;
61938;SDS011;47897;50.322;18.892;2022-08-18T03:20:30;100.70;;;53.70;;
61938;SDS011;47897;50.322;18.892;2022-08-18T03:23:14;99.50;;;53.90;;
61938;SDS011;47897;50.322;18.892;2022-08-18T03:25:59;104.40;;;55.80;;
61938;SDS011;47897;50.322;18.892;2022-08-18T03:28:44;101.50;;;56.60;;
61938;SDS011;47897;50.322;18.892;2022-08-18T03:31:31;102.30;;;56.30;;
61938;SDS011;47897;50.322;18.892;2022-08-18T03:34:17;97.90;;;54.50;;
61938;SDS011;47897;50.322;18.892;2022-08-18T03:37:03;97.00;;;54.10;;
61938;SDS011;47897;50.322;18.892;2022-08-18T03:39:48;94.40;;;53.50;;
61938;SDS011;47897;50.322;18.892;2022-08-18T03:42:35;97.90;;;54.10;;
61938;SDS011;47897;50.322;18.892;2022-08-18T03:45:20;99.20;;;54.20;;
61938;SDS011;47897;50.322;18.892;2022-08-18T03:48:06;96.60;;;53.30;;
61938;SDS011;47897;50.322;18.892;2022-08-18T03:50:51;95.00;;;54.20;;
61938;SDS011;47897;50.322;18.892;2022-08-18T03:53:36;107.20;;;56.30;;
61938;SDS011;47897;50.322;18.892;2022-08-18T03:56:22;105.60;;;56.20;;
61938;SDS011;47897;50.322;18.892;2022-08-18T03:59:10;102.60;;;55.50;;
61938;SDS011;47897;50.322;18.892;2022-08-18T04:02:01;98.10;;;54.30;;
61938;SDS011;47897;50.322;18.892;2022-08-18T04:04:47;108.70;;;54.20;;
61938;SDS011;47897;50.322;18.892;2022-08-18T04:07:32;111.40;;;53.50;;
61938;SDS011;47897;50.322;18.892;2022-08-18T04:10:17;107.40;;;54.30;;
61938;SDS011;47897;50.322;18.892;2022-08-18T04:13:02;103.10;;;55.00;;
61938;SDS011;47897;50.322;18.892;2022-08-18T04:15:49;103.00;;;54.40;;
61938;SDS011;47897;50.322;18.892;2022-08-18T04:18:33;106.90;;;55.20;;
61938;SDS011;47897;50.322;18.892;2022-08-18T04:21:01;105.80;;;56.60;;
61938;SDS011;47897;50.322;18.892;2022-08-18T04:23:29;97.30;;;54.70;;
61938;SDS011;47897;50.322;18.892;2022-08-18T04:25:56;103.90;;;55.90;;
61938;SDS011;47897;50.322;18.892;2022-08-18T04:28:24;104.80;;;56.40;;
61938;SDS011;47897;50.322;18.892;2022-08-18T04:30:52;111.80;;;57.30;;
61938;SDS011;47897;50.322;18.892;2022-08-18T04:33:20;115.00;;;59.80;;
61938;SDS011;47897;50.322;18.892;2022-08-18T04:35:47;117.00;;;58.70;;
61938;SDS011;47897;50.322;18.892;2022-08-18T04:38:14;121.70;;;60.40;;
61938;SDS011;47897;50.322;18.892;2022-08-18T04:40:41;114.90;;;60.20;;
61938;SDS011;47897;50.322;18.892;2022-08-18T04:43:08;109.80;;;58.10;;
61938;SDS011;47897;50.322;18.892;2022-08-18T04:45:41;127.30;;;62.90;;
61938;SDS011;47897;50.322;18.892;2022-08-18T04:48:10;119.20;;;59.40;;
61938;SDS011;47897;50.322;18.892;2022-08-18T04:50:38;117.80;;;60.20;;
61938;SDS011;47897;50.322;18.892;2022-08-18T04:53:05;134.60;;;62.20;;
61938;SDS011;47897;50.322;18.892;2022-08-18T04:55:53;130.10;;;63.80;;
61938;SDS011;47897;50.322;18.892;2022-08-18T04:58:22;131.80;;;63.80;;
61938;SDS011;47897;50.322;18.892;2022-08-18T05:00:57;138.10;;;65.70;;
61938;SDS011;47897;50.322;18.892;2022-08-18T05:03:27;153.10;;;67.60;;
61938;SDS011;47897;50.322;18.892;2022-08-18T05:05:54;133.60;;;62.50;;
61938;SDS011;47897;50.322;18.892;2022-08-18T05:08:24;136.60;;;63.40;;
61938;SDS011;47897;50.322;18.892;2022-08-18T05:10:55;131.10;;;62.20;;
61938;SDS011;47897;50.322;18.892;2022-08-18T05:13:23;132.30;;;64.40;;
61938;SDS011;47897;50.322;18.892;2022-08-18T05:15:51;131.40;;;63.00;;
61938;SDS011;47897;50.322;18.892;2022-08-18T05:18:20;137.00;;;62.40;;
61938;SDS011;47897;50.322;18.892;2022-08-18T05:20:50;134.80;;;63.50;;
61938;SDS011;47897;50.322;18.892;2022-08-18T05:23:18;138.30;;;65.70;;
61938;SDS011;47897;50.322;18.892;2022-08-18T05:25:47;138.70;;;65.10;;
61938;SDS011;47897;50.322;18.892;2022-08-18T05:28:14;142.10;;;63.90;;
61938;SDS011;47897;50.322;18.892;2022-08-18T05:30:42;146.00;;;64.20;;
61938;SDS011;47897;50.322;18.892;2022-08-18T05:33:09;132.90;;;62.40;;
61938;SDS011;47897;50.322;18.892;2022-08-18T05:35:40;122.30;;;62.00;;
61938;SDS011;47897;50.322;18.892;2022-08-18T05:41:14;107.10;;;56.40;;
61938;SDS011;47897;50.322;18.892;2022-08-18T05:43:47;117.70;;;56.20;;
61938;SDS011;47897;50.322;18.892;2022-08-18T05:46:14;118.20;;;59.60;;
61938;SDS011;47897;50.322;18.892;2022-08-18T05:48:41;108.20;;;56.50;;
61938;SDS011;47897;50.322;18.892;2022-08-18T05:51:17;107.00;;;55.80;;
61938;SDS011;47897;50.322;18.892;2022-08-18T05:53:51;105.20;;;52.70;;
61938;SDS011;47897;50.322;18.892;2022-08-18T05:56:36;111.40;;;55.40;;
61938;SDS011;47897;50.322;18.892;2022-08-18T05:59:36;109.10;;;56.50;;
61938;SDS011;47897;50.322;18.892;2022-08-18T06:05:02;108.50;;;55.10;;
61938;SDS011;47897;50.322;18.892;2022-08-18T06:07:43;105.20;;;54.50;;
61938;SDS011;47897;50.322;18.892;2022-08-18T06:10:15;105.70;;;54.50;;
61938;SDS011;47897;50.322;18.892;2022-08-18T06:12:43;109.20;;;55.70;;
61938;SDS011;47897;50.322;18.892;2022-08-18T06:15:16;115.10;;;53.00;;
61938;SDS011;47897;50.322;18.892;2022-08-18T06:34:51;111.40;;;51.70;;
61938;SDS011;47897;50.322;18.892;2022-08-18T06:40:30;99.30;;;49.10;;
61938;SDS011;47897;50.322;18.892;2022-08-18T06:42:57;92.40;;;50.40;;
61938;SDS011;47897;50.322;18.892;2022-08-18T06:45:33;86.00;;;47.80;;
61938;SDS011;47897;50.322;18.892;2022-08-18T06:48:06;84.00;;;47.50;;
61938;SDS011;47897;50.322;18.892;2022-08-18T06:50:48;104.50;;;52.10;;
61938;SDS011;47897;50.322;18.892;2022-08-18T06:53:22;85.40;;;49.10;;
61938;SDS011;47897;50.322;18.892;2022-08-18T07:01:53;83.00;;;45.70;;
61938;SDS011;47897;50.322;18.892;2022-08-18T07:04:42;86.30;;;46.30;;
61938;SDS011;47897;50.322;18.892;2022-08-18T07:07:34;76.70;;;45.80;;
61938;SDS011;47897;50.322;18.892;2022-08-18T07:12:40;82.60;;;47.90;;
61938;SDS011;47897;50.322;18.892;2022-08-18T07:15:07;80.90;;;45.50;;
61938;SDS011;47897;50.322;18.892;2022-08-18T07:17:38;72.40;;;42.60;;
61938;SDS011;47897;50.322;18.892;2022-08-18T07:20:07;66.20;;;39.60;;
61938;SDS011;47897;50.322;18.892;2022-08-18T07:22:56;61.80;;;38.30;;
61938;SDS011;47897;50.322;18.892;2022-08-18T07:25:30;54.50;;;35.70;;
61938;SDS011;47897;50.322;18.892;2022-08-18T07:28:04;54.20;;;34.30;;
61938;SDS011;47897;50.322;18.892;2022-08-18T07:30:35;52.20;;;33.80;;
61938;SDS011;47897;50.322;18.892;2022-08-18T07:33:18;51.50;;;32.50;;
61938;SDS011;47897;50.322;18.892;2022-08-18T07:35:50;48.10;;;32.00;;
61938;SDS011;47897;50.322;18.892;2022-08-18T07:40:52;48.10;;;31.00;;
61938;SDS011;47897;50.322;18.892;2022-08-18T07:43:28;49.20;;;32.00;;
61938;SDS011;47897;50.322;18.892;2022-08-18T07:46:07;49.50;;;32.30;;
61938;SDS011;47897;50.322;18.892;2022-08-18T07:48:43;47.70;;;30.90;;
61938;SDS011;47897;50.322;18.892;2022-08-18T07:53:53;47.10;;;31.20;;
61938;SDS011;47897;50.322;18.892;2022-08-18T07:56:35;47.10;;;31.30;;
61938;SDS011;47897;50.322;18.892;2022-08-18T07:59:10;49.40;;;30.20;;
61938;SDS011;47897;50.322;18.892;2022-08-18T08:01:52;46.40;;;30.20;;
61938;SDS011;47897;50.322;18.892;2022-08-18T08:07:22;47.40;;;30.60;;
61938;SDS011;47897;50.322;18.892;2022-08-18T08:18:11;54.50;;;31.10;;
61938;SDS011;47897;50.322;18.892;2022-08-18T08:20:56;40.00;;;28.70;;
61938;SDS011;47897;50.322;18.892;2022-08-18T08:23:28;44.40;;;30.40;;
61938;SDS011;47897;50.322;18.892;2022-08-18T08:28:47;44.10;;;29.40;;
61938;SDS011;47897;50.322;18.892;2022-08-18T08:34:16;43.90;;;29.90;;
61938;SDS011;47897;50.322;18.892;2022-08-18T08:36:48;44.80;;;30.10;;
61938;SDS011;47897;50.322;18.892;2022-08-18T08:39:25;45.10;;;31.10;;
61938;SDS011;47897;50.322;18.892;2022-08-18T08:47:37;60.50;;;34.30;;
61938;SDS011;47897;50.322;18.892;2022-08-18T08:50:12;54.40;;;32.00;;
61938;SDS011;47897;50.322;18.892;2022-08-18T08:52:49;45.90;;;31.10;;
61938;SDS011;47897;50.322;18.892;2022-08-18T08:55:26;52.00;;;33.70;;
61938;SDS011;47897;50.322;18.892;2022-08-18T08:58:02;48.50;;;33.00;;
61938;SDS011;47897;50.322;18.892;2022-08-18T09:00:52;49.00;;;31.20;;
61938;SDS011;47897;50.322;18.892;2022-08-18T09:06:14;50.80;;;32.20;;
61938;SDS011;47897;50.322;18.892;2022-08-18T09:11:22;50.60;;;31.80;;
61938;SDS011;47897;50.322;18.892;2022-08-18T09:14:17;46.60;;;31.20;;
61938;SDS011;47897;50.322;18.892;2022-08-18T09:21:59;40.20;;;29.60;;
61938;SDS011;47897;50.322;18.892;2022-08-18T09:24:40;44.20;;;28.40;;
61938;SDS011;47897;50.322;18.892;2022-08-18T09:29:50;42.30;;;27.70;;
61938;SDS011;47897;50.322;18.892;2022-08-18T09:37:27;38.30;;;26.90;;
61938;SDS011;47897;50.322;18.892;2022-08-18T09:40:14;35.70;;;26.40;;
61938;SDS011;47897;50.322;18.892;2022-08-18T09:54:22;40.20;;;26.00;;
61938;SDS011;47897;50.322;18.892;2022-08-18T10:02:02;33.80;;;25.80;;
61938;SDS011;47897;50.322;18.892;2022-08-18T10:04:38;38.10;;;25.90;;
61938;SDS011;47897;50.322;18.892;2022-08-18T10:16:00;32.40;;;24.80;;
61938;SDS011;47897;50.322;18.892;2022-08-18T10:18:45;31.80;;;25.20;;
61938;SDS011;47897;50.322;18.892;2022-08-18T10:21:27;33.00;;;23.60;;
61938;SDS011;47897;50.322;18.892;2022-08-18T10:24:16;32.40;;;24.60;;
61938;SDS011;47897;50.322;18.892;2022-08-18T10:26:57;30.70;;;24.30;;
61938;SDS011;47897;50.322;18.892;2022-08-18T10:37:13;33.00;;;23.90;;
61938;SDS011;47897;50.322;18.892;2022-08-18T10:39:45;38.40;;;24.80;;
61938;SDS011;47897;50.322;18.892;2022-08-18T10:42:22;31.90;;;23.90;;
61938;SDS011;47897;50.322;18.892;2022-08-18T10:44:55;36.90;;;24.70;;
61938;SDS011;47897;50.322;18.892;2022-08-18T10:47:39;31.80;;;24.80;;
61938;SDS011;47897;50.322;18.892;2022-08-18T10:50:11;32.90;;;26.20;;
61938;SDS011;47897;50.322;18.892;2022-08-18T11:06:17;32.30;;;26.30;;
61938;SDS011;47897;50.322;18.892;2022-08-18T11:08:49;28.70;;;25.10;;
61938;SDS011;47897;50.322;18.892;2022-08-18T11:13:58;33.80;;;26.40;;
61938;SDS011;47897;50.322;18.892;2022-08-18T11:19:41;34.30;;;26.10;;
61938;SDS011;47897;50.322;18.892;2022-08-18T11:22:30;37.40;;;27.10;;
61938;SDS011;47897;50.322;18.892;2022-08-18T11:25:00;38.90;;;27.10;;
61938;SDS011;47897;50.322;18.892;2022-08-18T11:27:47;36.80;;;26.00;;
61938;SDS011;47897;50.322;18.892;2022-08-18T11:30:15;29.30;;;25.20;;
61938;SDS011;47897;50.322;18.892;2022-08-18T11:32:42;33.30;;;26.60;;
61938;SDS011;47897;50.322;18.892;2022-08-18T11:35:15;35.40;;;26.80;;
61938;SDS011;47897;50.322;18.892;2022-08-18T11:37:46;32.70;;;26.50;;
61938;SDS011;47897;50.322;18.892;2022-08-18T11:48:37;38.00;;;26.90;;
61938;SDS011;47897;50.322;18.892;2022-08-18T11:51:22;34.80;;;27.40;;
61938;SDS011;47897;50.322;18.892;2022-08-18T11:53:54;35.60;;;27.50;;
61938;SDS011;47897;50.322;18.892;2022-08-18T11:56:33;32.50;;;27.60;;
61938;SDS011;47897;50.322;18.892;2022-08-18T11:59:04;37.00;;;27.70;;
61938;SDS011;47897;50.322;18.892;2022-08-18T12:04:13;32.00;;;26.10;;
61938;SDS011;47897;50.322;18.892;2022-08-18T12:06:53;35.40;;;25.40;;
61938;SDS011;47897;50.322;18.892;2022-08-18T12:09:31;31.60;;;25.20;;
61938;SDS011;47897;50.322;18.892;2022-08-18T12:12:16;36.50;;;27.40;;
61938;SDS011;47897;50.322;18.892;2022-08-18T12:17:55;36.60;;;25.40;;
61938;SDS011;47897;50.322;18.892;2022-08-18T12:20:23;32.70;;;25.00;;
61938;SDS011;47897;50.322;18.892;2022-08-18T12:22:50;33.90;;;25.90;;
61938;SDS011;47897;50.322;18.892;2022-08-18T12:25:21;36.20;;;25.50;;
61938;SDS011;47897;50.322;18.892;2022-08-18T12:27:48;32.80;;;25.10;;
61938;SDS011;47897;50.322;18.892;2022-08-18T12:30:16;32.50;;;25.80;;
61938;SDS011;47897;50.322;18.892;2022-08-18T12:32:44;33.40;;;25.20;;
61938;SDS011;47897;50.322;18.892;2022-08-18T12:35:11;32.40;;;26.10;;
61938;SDS011;47897;50.322;18.892;2022-08-18T12:37:42;38.40;;;26.00;;
61938;SDS011;47897;50.322;18.892;2022-08-18T12:40:10;38.40;;;25.10;;
61938;SDS011;47897;50.322;18.892;2022-08-18T12:42:38;30.10;;;24.50;;
61938;SDS011;47897;50.322;18.892;2022-08-18T12:45:05;38.80;;;25.90;;
61938;SDS011;47897;50.322;18.892;2022-08-18T12:47:34;34.50;;;25.50;;
61938;SDS011;47897;50.322;18.892;2022-08-18T12:50:05;32.20;;;24.70;;
61938;SDS011;47897;50.322;18.892;2022-08-18T12:52:33;33.40;;;24.90;;
61938;SDS011;47897;50.322;18.892;2022-08-18T12:55:00;31.90;;;24.00;;
61938;SDS011;47897;50.322;18.892;2022-08-18T12:57:27;31.00;;;22.50;;
61938;SDS011;47897;50.322;18.892;2022-08-18T12:59:55;26.20;;;21.70;;
61938;SDS011;47897;50.322;18.892;2022-08-18T13:02:21;34.90;;;24.60;;
61938;SDS011;47897;50.322;18.892;2022-08-18T13:04:49;33.60;;;25.00;;
61938;SDS011;47897;50.322;18.892;2022-08-18T13:07:16;28.70;;;22.60;;
61938;SDS011;47897;50.322;18.892;2022-08-18T13:09:43;29.90;;;22.70;;
61938;SDS011;47897;50.322;18.892;2022-08-18T13:12:10;30.20;;;23.50;;
61938;SDS011;47897;50.322;18.892;2022-08-18T13:14:37;31.00;;;22.40;;
61938;SDS011;47897;50.322;18.892;2022-08-18T13:17:04;27.70;;;22.40;;
61938;SDS011;47897;50.322;18.892;2022-08-18T13:19:31;30.30;;;21.50;;
61938;SDS011;47897;50.322;18.892;2022-08-18T13:21:58;29.90;;;22.60;;
61938;SDS011;47897;50.322;18.892;2022-08-18T13:24:25;30.40;;;22.60;;
61938;SDS011;47897;50.322;18.892;2022-08-18T13:26:52;30.50;;;24.10;;
61938;SDS011;47897;50.322;18.892;2022-08-18T13:29:20;27.70;;;24.00;;
61938;SDS011;47897;50.322;18.892;2022-08-18T13:31:47;29.70;;;23.20;;
61938;SDS011;47897;50.322;18.892;2022-08-18T13:34:14;35.50;;;23.50;;
61938;SDS011;47897;50.322;18.892;2022-08-18T13:36:41;31.00;;;22.80;;
61938;SDS011;47897;50.322;18.892;2022-08-18T13:39:16;31.00;;;23.40;;
61938;SDS011;47897;50.322;18.892;2022-08-18T13:41:45;30.00;;;22.00;;
61938;SDS011;47897;50.322;18.892;2022-08-18T13:44:15;31.20;;;22.80;;
61938;SDS011;47897;50.322;18.892;2022-08-18T13:46:44;28.20;;;22.70;;
61938;SDS011;47897;50.322;18.892;2022-08-18T13:49:16;27.10;;;20.90;;
61938;SDS011;47897;50.322;18.892;2022-08-18T13:51:44;33.00;;;22.20;;
61938;SDS011;47897;50.322;18.892;2022-08-18T13:54:19;31.00;;;23.60;;
61938;SDS011;47897;50.322;18.892;2022-08-18T13:56:49;29.10;;;22.60;;
61938;SDS011;47897;50.322;18.892;2022-08-18T13:59:16;29.10;;;21.90;;
61938;SDS011;47897;50.322;18.892;2022-08-18T14:01:44;25.70;;;20.20;;
61938;SDS011;47897;50.322;18.892;2022-08-18T14:04:11;28.10;;;21.80;;
61938;SDS011;47897;50.322;18.892;2022-08-18T14:06:39;31.80;;;22.30;;
61938;SDS011;47897;50.322;18.892;2022-08-18T14:09:06;28.70;;;22.40;;
61938;SDS011;47897;50.322;18.892;2022-08-18T14:11:34;25.70;;;21.60;;
61938;SDS011;47897;50.322;18.892;2022-08-18T14:14:03;25.90;;;21.80;;
61938;SDS011;47897;50.322;18.892;2022-08-18T14:16:31;28.40;;;21.40;;
61938;SDS011;47897;50.322;18.892;2022-08-18T14:18:59;25.80;;;22.00;;
61938;SDS011;47897;50.322;18.892;2022-08-18T14:21:47;26.70;;;21.60;;
61938;SDS011;47897;50.322;18.892;2022-08-18T14:24:35;27.50;;;22.30;;
61938;SDS011;47897;50.322;18.892;2022-08-18T14:27:24;28.20;;;22.50;;
61938;SDS011;47897;50.322;18.892;2022-08-18T14:29:54;28.10;;;22.40;;
61938;SDS011;47897;50.322;18.892;2022-08-18T14:32:25;26.10;;;21.10;;
61938;SDS011;47897;50.322;18.892;2022-08-18T14:34:56;27.50;;;21.60;;
61938;SDS011;47897;50.322;18.892;2022-08-18T14:37:25;29.40;;;22.30;;
61938;SDS011;47897;50.322;18.892;2022-08-18T14:39:53;27.50;;;21.40;;
61938;SDS011;47897;50.322;18.892;2022-08-18T14:42:20;26.50;;;22.70;;
61938;SDS011;47897;50.322;18.892;2022-08-18T14:44:48;27.30;;;21.80;;
61938;SDS011;47897;50.322;18.892;2022-08-18T14:47:16;43.10;;;22.50;;
61938;SDS011;47897;50.322;18.892;2022-08-18T14:49:43;26.40;;;21.60;;
61938;SDS011;47897;50.322;18.892;2022-08-18T14:52:11;27.60;;;21.60;;
61938;SDS011;47897;50.322;18.892;2022-08-18T14:54:39;26.70;;;22.10;;
61938;SDS011;47897;50.322;18.892;2022-08-18T14:57:06;29.50;;;21.50;;
61938;SDS011;47897;50.322;18.892;2022-08-18T15:02:08;29.50;;;22.00;;
61938;SDS011;47897;50.322;18.892;2022-08-18T15:04:37;27.20;;;21.10;;
61938;SDS011;47897;50.322;18.892;2022-08-18T15:07:04;25.70;;;21.00;;
61938;SDS011;47897;50.322;18.892;2022-08-18T15:09:31;24.90;;;21.30;;
61938;SDS011;47897;50.322;18.892;2022-08-18T15:11:58;28.30;;;22.50;;
61938;SDS011;47897;50.322;18.892;2022-08-18T15:14:26;29.40;;;22.70;;
61938;SDS011;47897;50.322;18.892;2022-08-18T15:17:01;26.40;;;20.90;;
61938;SDS011;47897;50.322;18.892;2022-08-18T15:19:32;25.80;;;22.00;;
61938;SDS011;47897;50.322;18.892;2022-08-18T15:21:59;29.00;;;21.40;;
61938;SDS011;47897;50.322;18.892;2022-08-18T15:24:44;24.30;;;21.10;;
61938;SDS011;47897;50.322;18.892;2022-08-18T15:27:34;33.90;;;22.20;;
61938;SDS011;47897;50.322;18.892;2022-08-18T15:30:07;27.70;;;21.60;;
61938;SDS011;47897;50.322;18.892;2022-08-18T15:32:40;29.10;;;20.70;;
61938;SDS011;47897;50.322;18.892;2022-08-18T15:35:11;27.60;;;21.00;;
61938;SDS011;47897;50.322;18.892;2022-08-18T15:37:42;29.80;;;21.30;;
61938;SDS011;47897;50.322;18.892;2022-08-18T15:42:47;28.20;;;21.40;;
61938;SDS011;47897;50.322;18.892;2022-08-18T15:45:17;23.90;;;19.80;;
61938;SDS011;47897;50.322;18.892;2022-08-18T15:47:51;27.20;;;20.60;;
61938;SDS011;47897;50.322;18.892;2022-08-18T15:50:19;24.90;;;20.70;;
61938;SDS011;47897;50.322;18.892;2022-08-18T15:52:51;25.50;;;21.10;;
61938;SDS011;47897;50.322;18.892;2022-08-18T15:55:21;25.70;;;20.10;;
61938;SDS011;47897;50.322;18.892;2022-08-18T15:57:50;26.50;;;19.50;;
61938;SDS011;47897;50.322;18.892;2022-08-18T16:00:18;23.00;;;19.40;;
61938;SDS011;47897;50.322;18.892;2022-08-18T16:02:53;23.30;;;19.40;;
61938;SDS011;47897;50.322;18.892;2022-08-18T16:05:28;26.10;;;19.40;;
61938;SDS011;47897;50.322;18.892;2022-08-18T16:08:03;25.00;;;18.90;;
61938;SDS011;47897;50.322;18.892;2022-08-18T16:10:32;24.70;;;19.70;;
61938;SDS011;47897;50.322;18.892;2022-08-18T16:13:03;24.30;;;20.20;;
61938;SDS011;47897;50.322;18.892;2022-08-18T16:15:36;24.80;;;19.10;;
61938;SDS011;47897;50.322;18.892;2022-08-18T16:18:06;26.20;;;19.30;;
61938;SDS011;47897;50.322;18.892;2022-08-18T16:20:34;24.00;;;19.70;;
61938;SDS011;47897;50.322;18.892;2022-08-18T16:23:02;27.50;;;18.90;;
61938;SDS011;47897;50.322;18.892;2022-08-18T16:25:31;21.50;;;18.70;;
61938;SDS011;47897;50.322;18.892;2022-08-18T16:27:58;27.00;;;19.40;;
61938;SDS011;47897;50.322;18.892;2022-08-18T16:30:27;24.50;;;19.40;;
61938;SDS011;47897;50.322;18.892;2022-08-18T16:32:58;26.50;;;20.00;;
61938;SDS011;47897;50.322;18.892;2022-08-18T16:35:28;23.50;;;18.00;;
61938;SDS011;47897;50.322;18.892;2022-08-18T16:38:06;23.10;;;18.60;;
61938;SDS011;47897;50.322;18.892;2022-08-18T16:40:34;26.00;;;18.40;;
61938;SDS011;47897;50.322;18.892;2022-08-18T16:43:02;26.90;;;19.80;;
61938;SDS011;47897;50.322;18.892;2022-08-18T16:45:30;25.20;;;18.50;;
61938;SDS011;47897;50.322;18.892;2022-08-18T16:47:59;22.20;;;19.10;;
61938;SDS011;47897;50.322;18.892;2022-08-18T16:50:26;30.80;;;19.80;;
61938;SDS011;47897;50.322;18.892;2022-08-18T16:52:54;21.30;;;18.30;;
61938;SDS011;47897;50.322;18.892;2022-08-18T16:55:21;24.60;;;18.20;;
61938;SDS011;47897;50.322;18.892;2022-08-18T16:57:48;23.60;;;18.80;;
61938;SDS011;47897;50.322;18.892;2022-08-18T17:00:34;26.10;;;18.70;;
61938;SDS011;47897;50.322;18.892;2022-08-18T17:03:23;23.50;;;17.80;;
61938;SDS011;47897;50.322;18.892;2022-08-18T17:06:11;32.60;;;19.30;;
61938;SDS011;47897;50.322;18.892;2022-08-18T17:08:40;26.60;;;18.40;;
61938;SDS011;47897;50.322;18.892;2022-08-18T17:11:10;32.60;;;18.20;;
61938;SDS011;47897;50.322;18.892;2022-08-18T17:13:42;27.00;;;19.30;;
61938;SDS011;47897;50.322;18.892;2022-08-18T17:16:10;28.40;;;19.10;;
61938;SDS011;47897;50.322;18.892;2022-08-18T17:18:39;30.10;;;19.00;;
61938;SDS011;47897;50.322;18.892;2022-08-18T17:21:07;23.90;;;18.30;;
61938;SDS011;47897;50.322;18.892;2022-08-18T17:23:38;24.00;;;19.20;;
61938;SDS011;47897;50.322;18.892;2022-08-18T17:26:07;26.80;;;18.80;;
61938;SDS011;47897;50.322;18.892;2022-08-18T17:28:55;25.80;;;19.80;;
61938;SDS011;47897;50.322;18.892;2022-08-18T17:31:29;24.60;;;19.80;;